aviador You're here:

EIDW Decoded Metar

DUBLIN in IRELAND
Report Time2018-06-25 06:00:00
UTC Time2018-06-25 06:22:50
Flight Rules vfr VFR
Wind270° at 07 kt
W.Decomp.*RWY 28: 7.0 kt HW 0.7 kt LCW
RWY 34: 2.8 kt HW 6.4 kt LCW
W.Rank270° ranks 5
Current wind is below 270° avg. (11.6)
Visibility9999 m
Phenomena:N/A
Clouds:N/A
Expected CloudBase > 3,200 ft AGL from Temp-Dew spread
CeilingNone
Temp15°C (ISA 0)
Dew Point07°C (59% RH)
AAT11.8°C
QNH1026 hPa
Density Alt0 ft
Elevation242 ft
Report Wrong Elevation
Raw Report
METAR EIDW 250600Z 27007KT CAVOK 15/07 Q1026 NOSIG=

Extra information for EIDW:More info

Metar Taf Metar & Taf Last 4 Metars F.Rules Stats Wind Profile Meteogram Temp Stats Airport Information Weather charts Add Link Nearby VenuesMetar ALERT Operation Metar Decoded Social comments